Weather reports worldwide

Advertisment
Getafe Airbase, Spain (8225): temperature & dewpoint: 19.08.2019 14:00:00 - 25.08.2019 14:00:00 (CEST)Getafe Airbase, Spain (8225): wind speed: 19.08.2019 14:00:00 - 25.08.2019 14:00:00 (CEST)Getafe Airbase, Spain (8225): wind direction: 19.08.2019 14:00:00 - 25.08.2019 14:00:00 (CEST)Getafe Airbase, Spain (8225): visibility: 19.08.2019 14:00:00 - 25.08.2019 14:00:00 (CEST)
Date & Time tt [°C] td [°C] ff [km/h] ff [kn] dd vv [km]
25.08.2019 14:00:00 31,0 13,0 15 8 ESE 10
25.08.2019 13:00:00 29,0 13,0 15 8 SE 10
25.08.2019 12:00:00 28,0 13,0 13 7 ESE 10
25.08.2019 11:00:00 26,0 13,0 13 7 E 10
25.08.2019 10:00:00 24,0 11,0 16 9 ENE 10
25.08.2019 09:00:00 23,0 13,0 13 7 ENE 10
25.08.2019 08:00:00 21,0 13,0 13 7 ENE 10
25.08.2019 07:00:00 22,0 14,0 21 11 ENE 10
25.08.2019 06:00:00 - - - - - -
25.08.2019 05:00:00 - - - - - -
25.08.2019 04:00:00 - - - - - -
25.08.2019 03:00:00 - - - - - -
25.08.2019 02:00:00 - - - - - -
25.08.2019 01:00:00 - - - - - -
25.08.2019 00:00:00 - - - - - -
24.08.2019 23:00:00 - - - - - -
24.08.2019 22:00:00 - - - - - -
24.08.2019 21:00:00 31,0 6,0 4 2 S 10
24.08.2019 20:00:00 34,0 6,0 0 0 N 10
24.08.2019 19:00:00 34,0 6,0 8 4 SW 10
24.08.2019 18:00:00 34,0 6,0 8 4 - 10
24.08.2019 17:00:00 34,0 6,0 9 5 - 10
24.08.2019 16:00:00 33,0 6,0 13 7 SW 10
24.08.2019 15:00:00 32,0 6,0 8 4 SSE 10
24.08.2019 14:00:00 32,0 6,0 8 4 - 10
24.08.2019 13:00:00 30,0 9,0 8 4 ESE 10
24.08.2019 12:00:00 28,0 9,0 11 6 ESE 10
24.08.2019 11:00:00 25,0 9,0 13 7 ENE 10
24.08.2019 10:00:00 23,0 9,0 9 5 ENE 10
24.08.2019 09:00:00 22,0 11,0 9 5 NE 10
24.08.2019 08:00:00 20,0 11,0 13 7 NE 10
24.08.2019 07:00:00 19,0 10,0 11 6 NE 10
24.08.2019 06:00:00 - - - - - -
24.08.2019 05:00:00 - - - - - -
24.08.2019 04:00:00 - - - - - -
24.08.2019 03:00:00 - - - - - -
24.08.2019 02:00:00 - - - - - -
24.08.2019 01:00:00 - - - - - -
24.08.2019 00:00:00 - - - - - -
23.08.2019 23:00:00 - - - - - -
23.08.2019 22:00:00 - - - - - -
23.08.2019 21:00:00 - - - - - -
23.08.2019 20:00:00 32,0 7,0 5 3 SSE 10
23.08.2019 19:00:00 33,0 7,0 9 5 SSW 10
23.08.2019 18:00:00 32,0 8,0 5 3 NNE 10
23.08.2019 17:00:00 32,0 8,0 4 2 WNW 10
23.08.2019 16:00:00 32,0 9,0 5 3 - 10
23.08.2019 15:00:00 31,0 10,0 8 4 - 10
23.08.2019 14:00:00 30,0 10,0 8 4 S 10
23.08.2019 13:00:00 28,0 10,0 9 5 - 10
23.08.2019 12:00:00 27,0 10,0 9 5 E 10
23.08.2019 11:00:00 25,0 11,0 13 7 E 10
23.08.2019 10:00:00 23,0 10,0 9 5 E 10
23.08.2019 09:00:00 21,0 10,0 8 4 E 10
23.08.2019 08:00:00 19,0 11,0 11 6 NE 10
23.08.2019 07:00:00 20,0 13,0 13 7 NE 10
23.08.2019 06:00:00 - - - - - -
23.08.2019 05:00:00 - - - - - -
23.08.2019 04:00:00 - - - - - -
23.08.2019 03:00:00 - - - - - -
23.08.2019 02:00:00 - - - - - -
23.08.2019 01:00:00 - - - - - -
23.08.2019 00:00:00 - - - - - -
22.08.2019 23:00:00 - - - - - -
22.08.2019 22:00:00 - - - - - -
22.08.2019 21:00:00 29,0 4,0 5 3 E 10
22.08.2019 20:00:00 31,0 2,0 9 5 SE 10
22.08.2019 19:00:00 32,0 4,0 8 4 - 10
22.08.2019 18:00:00 32,0 5,0 8 4 - 10
22.08.2019 17:00:00 32,0 6,0 8 4 SE 10
22.08.2019 16:00:00 31,0 6,0 9 5 E 10
22.08.2019 15:00:00 30,0 8,0 8 4 E 10
22.08.2019 14:00:00 28,0 13,0 8 4 E 10
22.08.2019 13:00:00 26,0 14,0 9 5 ENE 10
22.08.2019 12:00:00 24,0 15,0 11 6 E 10
22.08.2019 11:00:00 22,0 16,0 11 6 NE 10
22.08.2019 10:00:00 20,0 15,0 11 6 ENE 10
22.08.2019 09:00:00 19,0 15,0 11 6 NE 10
22.08.2019 08:00:00 17,0 15,0 8 4 E 10
22.08.2019 07:00:00 17,0 16,0 8 4 E 10
22.08.2019 06:00:00 - - - - - -
22.08.2019 05:00:00 - - - - - -
22.08.2019 04:00:00 - - - - - -
22.08.2019 03:00:00 - - - - - -
22.08.2019 02:00:00 - - - - - -
22.08.2019 01:00:00 - - - - - -
22.08.2019 00:00:00 - - - - - -
21.08.2019 23:00:00 - - - - - -
21.08.2019 22:00:00 - - - - - -
21.08.2019 21:00:00 26,0 17,0 24 13 SSE 10
21.08.2019 20:00:00 30,0 13,0 5 3 S 10
21.08.2019 19:00:00 30,0 13,0 0 0 N 10
21.08.2019 18:00:00 30,0 14,0 8 4 - 10
21.08.2019 17:00:00 29,0 15,0 5 3 - 10
21.08.2019 16:00:00 30,0 15,0 9 5 SSE 10
21.08.2019 15:00:00 28,0 16,0 8 4 - 10
21.08.2019 14:00:00 26,0 17,0 11 6 ENE 10
21.08.2019 13:00:00 26,0 17,0 8 4 NE 10
21.08.2019 12:00:00 24,0 16,0 11 6 ENE 10
21.08.2019 11:00:00 23,0 15,0 11 6 ENE 10
21.08.2019 10:00:00 23,0 15,0 13 7 NE 10
21.08.2019 09:00:00 22,0 14,0 13 7 NE 10
21.08.2019 08:00:00 22,0 14,0 15 8 NE 10
21.08.2019 07:00:00 21,0 13,0 16 9 NE 10
21.08.2019 06:00:00 - - - - - -
21.08.2019 05:00:00 - - - - - -
21.08.2019 04:00:00 - - - - - -
21.08.2019 03:00:00 - - - - - -
21.08.2019 02:00:00 - - - - - -
21.08.2019 01:00:00 - - - - - -
21.08.2019 00:00:00 - - - - - -
20.08.2019 23:00:00 - - - - - -
20.08.2019 22:00:00 - - - - - -
20.08.2019 21:00:00 28,0 12,0 21 11 NE 10
20.08.2019 20:00:00 30,0 9,0 16 9 NNE 10
20.08.2019 19:00:00 31,0 10,0 15 8 NNE 10
20.08.2019 18:00:00 31,0 11,0 11 6 ENE 10
20.08.2019 17:00:00 30,0 12,0 16 9 NE 10
20.08.2019 16:00:00 30,0 13,0 13 7 NNE 10
20.08.2019 15:00:00 29,0 14,0 15 8 NE 10
20.08.2019 14:00:00 29,0 15,0 16 9 ENE 10
20.08.2019 13:00:00 28,0 16,0 16 9 NNE 10
20.08.2019 12:00:00 26,0 17,0 16 9 NE 10
20.08.2019 11:00:00 25,0 15,0 18 10 NNE 10
20.08.2019 10:00:00 23,0 15,0 18 10 NNE 10
20.08.2019 09:00:00 22,0 15,0 16 9 NE 10
20.08.2019 08:00:00 22,0 14,0 16 9 NNE 10
20.08.2019 07:00:00 22,0 14,0 18 10 NNE 10
20.08.2019 06:00:00 - - - - - -
20.08.2019 05:00:00 - - - - - -
20.08.2019 04:00:00 - - - - - -
20.08.2019 03:00:00 - - - - - -
20.08.2019 02:00:00 - - - - - -
20.08.2019 01:00:00 - - - - - -
20.08.2019 00:00:00 - - - - - -
19.08.2019 23:00:00 - - - - - -
19.08.2019 22:00:00 - - - - - -
19.08.2019 21:00:00 - - - - - -
19.08.2019 20:00:00 32,0 9,0 18 10 W 10
19.08.2019 19:00:00 32,0 10,0 15 8 W 10
19.08.2019 18:00:00 34,0 11,0 21 11 W 10
19.08.2019 17:00:00 33,0 11,0 21 11 SW 10
19.08.2019 16:00:00 33,0 10,0 24 13 WSW 10
19.08.2019 15:00:00 33,0 11,0 22 12 SW 10
19.08.2019 14:00:00 31,0 11,0 18 10 SW 10

tt = temperature
td = dewpoint
ff = wind speed
dd = wind direction
vv = visibility

Next stations